Time;durP1;ratioP1;P1;durP2;ratioP2;P2;SDS_P1;SDS_P2;PMS_P1;PMS_P2;Temp;Humidity;BMP_temperature;BMP_pressure;BME280_temperature;BME280_humidity;BME280_pressure;Samples;Min_cycle;Max_cycle;Signal;HPM_P1;HPM_P2
2022/11/20 00:01:22;;;;;;;;;;;;;;;-4.45;70.75;100427.20;116703;1300;25417;-70
2022/11/20 00:04:11;;;;;;;;;;;;;;;-4.48;70.72;100430.20;116714;1286;24471;-70
2022/11/20 00:07:05;;;;;;;;;;;;;;;-4.51;70.86;100434.88;116716;1300;22550;-70
2022/11/20 00:09:52;;;;;;;;;;;;;;;-4.56;70.75;100432.89;116689;1285;22426;-69
2022/11/20 00:12:42;;;;;;;;;;;;;;;-4.63;70.89;100430.00;116719;1292;22429;-69
2022/11/20 00:15:35;;;;;;;;;;;;;;;-4.70;71.02;100433.08;116684;1301;22437;-70
2022/11/20 00:18:22;;;;;;;;;;;;;;;-4.75;71.05;100436.02;116676;1290;22447;-69
2022/11/20 00:21:11;;;;;;;;;;;;;;;-4.80;71.19;100433.48;116661;1286;24254;-69
2022/11/20 00:24:01;;;;;;;;;;;;;;;-4.85;71.23;100434.22;116706;1294;24257;-69
2022/11/20 00:26:49;;;;;;;;;;;;;;;-4.87;71.53;100432.66;116654;1289;22442;-69
2022/11/20 00:29:40;;;;;;;;;;;;;;;-4.85;71.68;100434.56;116647;1270;24258;-69
2022/11/20 00:32:30;;;;;;;;;;;;;;;-4.82;71.76;100434.29;116706;1300;24829;-69
2022/11/20 00:35:20;;;;;;;;;;;;;;;-4.78;71.74;100428.80;116670;1275;22448;-71
2022/11/20 00:38:11;;;;;;;;;;;;;;;-4.70;71.68;100430.17;116678;1284;25379;-73
2022/11/20 00:41:02;;;;;;;;;;;;;;;-4.57;71.85;100431.16;116667;1284;24382;-69
2022/11/20 00:43:53;;;;;;;;;;;;;;;-4.44;71.92;100426.02;116719;1300;22466;-69
2022/11/20 00:46:41;;;;;;;;;;;;;;;-4.34;71.84;100417.58;116697;1298;22551;-69
2022/11/20 00:49:31;;;;;;;;;;;;;;;-4.24;71.96;100418.48;116690;1300;22564;-69
2022/11/20 00:52:20;;;;;;;;;;;;;;;-4.19;71.72;100421.50;116708;1285;22461;-69
2022/11/20 00:55:11;;;;;;;;;;;;;;;-4.17;71.62;100416.77;116692;1300;22429;-69
2022/11/20 00:58:00;;;;;;;;;;;;;;;-4.15;71.50;100411.01;116710;1289;24258;-69
2022/11/20 01:00:49;;;;;;;;;;;;;;;-4.17;71.30;100414.90;116718;1300;25433;-70
2022/11/20 01:03:40;;;;;;;;;;;;;;;-4.18;71.23;100410.45;116700;1300;22666;-68
2022/11/20 01:06:32;;;;;;;;;;;;;;;-4.20;71.30;100410.91;116713;1297;22461;-69
2022/11/20 01:09:22;;;;;;;;;;;;;;;-4.23;71.17;100405.91;116702;1281;22561;-70
2022/11/20 01:12:14;;;;;;;;;;;;;;;-4.27;71.22;100408.37;116705;1285;24271;-70
2022/11/20 01:15:02;;;;;;;;;;;;;;;-4.29;71.37;100401.50;116719;1292;22435;-70
2022/11/20 01:17:51;;;;;;;;;;;;;;;-4.31;71.26;100392.61;116677;1300;25209;-69
2022/11/20 01:20:41;;;;;;;;;;;;;;;-4.33;71.28;100391.23;116671;1278;22440;-69
2022/11/20 01:23:30;;;;;;;;;;;;;;;-4.33;71.29;100392.56;116683;1300;22448;-69
2022/11/20 01:26:18;;;;;;;;;;;;;;;-4.33;71.42;100387.63;116710;1289;22633;-69
2022/11/20 01:29:06;;;;;;;;;;;;;;;-4.29;71.31;100382.44;116703;1297;22430;-69
2022/11/20 01:31:57;;;;;;;;;;;;;;;-4.23;71.20;100377.81;116703;1300;25047;-69
2022/11/20 01:34:45;;;;;;;;;;;;;;;-4.15;71.31;100376.61;116700;1300;22445;-69
2022/11/20 01:37:33;;;;;;;;;;;;;;;-4.08;71.12;100374.36;116673;1300;25435;-69
2022/11/20 01:43:44;;;;;;;;;;;;;;;-4.05;70.91;100385.67;116632;1280;22437;-69
2022/11/20 01:46:36;;;;;;;;;;;;;;;-4.07;70.90;100390.40;116571;1282;22465;-69
2022/11/20 01:49:27;;;;;;;;;;;;;;;-4.09;70.94;100393.06;116580;1292;22441;-69
2022/11/20 01:52:18;;;;;;;;;;;;;;;-4.10;70.81;100397.30;116573;1303;24248;-69
2022/11/20 01:55:10;;;;;;;;;;;;;;;-4.15;70.79;100395.17;116595;1303;22418;-68
2022/11/20 01:57:59;;;;;;;;;;;;;;;-4.19;70.89;100394.56;116599;1292;22478;-69
2022/11/20 02:00:48;;;;;;;;;;;;;;;-4.21;70.92;100392.32;116630;1304;22544;-69
2022/11/20 02:03:37;;;;;;;;;;;;;;;-4.22;70.99;100396.21;116637;1297;22444;-69
2022/11/20 02:06:28;;;;;;;;;;;;;;;-4.25;71.09;100402.63;116637;1291;22417;-69
2022/11/20 02:09:20;;;;;;;;;;;;;;;-4.26;70.99;100400.38;116577;1274;22442;-69
2022/11/20 02:13:42;;;;;;;;;;;;;;;-4.28;71.15;100397.45;116590;1285;22441;-69
2022/11/20 02:15:23;;;;;;;;;;;;;;;-4.31;71.10;100392.27;116563;1284;22887;-69
2022/11/20 02:18:13;;;;;;;;;;;;;;;-4.33;71.05;100393.42;116560;1284;24273;-69
2022/11/20 02:21:05;;;;;;;;;;;;;;;-4.35;71.14;100387.40;116614;1303;22451;-69
2022/11/20 02:24:08;;;;;;;;;;;;;;;-4.36;71.24;100389.27;116566;1301;22449;-70
2022/11/20 02:26:57;;;;;;;;;;;;;;;-4.36;71.31;100384.31;116572;1285;22468;-70
2022/11/20 02:29:49;;;;;;;;;;;;;;;-4.36;71.30;100381.94;116577;1294;22455;-68
2022/11/20 02:32:38;;;;;;;;;;;;;;;-4.36;71.42;100376.82;116550;1284;22455;-69
2022/11/20 02:35:48;;;;;;;;;;;;;;;-4.35;71.49;100375.64;116590;1302;22449;-69
2022/11/20 02:38:38;;;;;;;;;;;;;;;-4.34;71.61;100373.61;116606;1288;22441;-69
2022/11/20 02:41:35;;;;;;;;;;;;;;;-4.34;71.56;100373.11;116558;1296;22448;-69
2022/11/20 02:44:25;;;;;;;;;;;;;;;-4.34;71.58;100375.34;116577;1282;22440;-69
2022/11/20 02:47:14;;;;;;;;;;;;;;;-4.34;71.64;100372.27;116648;1291;22444;-71
2022/11/20 02:50:04;;;;;;;;;;;;;;;-4.35;71.72;100364.58;116444;1303;22558;-69
2022/11/20 02:52:59;;;;;;;;;;;;;;;-4.34;71.86;100365.11;116403;1289;22428;-68
2022/11/20 02:55:47;;;;;;;;;;;;;;;-4.35;71.84;100362.38;116599;1295;22433;-69
2022/11/20 02:58:37;;;;;;;;;;;;;;;-4.32;72.01;100358.88;116566;1291;22489;-69
2022/11/20 03:01:31;;;;;;;;;;;;;;;-4.26;71.94;100359.34;116576;1288;25227;-70
2022/11/20 03:04:23;;;;;;;;;;;;;;;-4.20;71.95;100363.05;116593;1285;24372;-71
2022/11/20 03:07:13;;;;;;;;;;;;;;;-4.09;72.20;100364.45;116560;1285;22448;-69
2022/11/20 03:10:02;;;;;;;;;;;;;;;-4.00;72.01;100368.40;116558;1282;22448;-69
2022/11/20 03:12:53;;;;;;;;;;;;;;;-3.96;71.98;100369.01;116584;1274;24296;-69
2022/11/20 03:15:41;;;;;;;;;;;;;;;-3.94;71.72;100367.16;116573;1283;22491;-69
2022/11/20 03:18:30;;;;;;;;;;;;;;;-3.97;71.73;100367.97;116552;1282;22448;-69
2022/11/20 03:21:19;;;;;;;;;;;;;;;-4.01;71.62;100366.33;116563;1282;22427;-70
2022/11/20 03:24:11;;;;;;;;;;;;;;;-4.07;71.88;100367.25;116602;1285;22470;-69
2022/11/20 03:26:58;;;;;;;;;;;;;;;-4.12;71.80;100366.79;116616;1304;22425;-70
2022/11/20 03:29:47;;;;;;;;;;;;;;;-4.20;71.80;100368.33;116598;1289;22445;-70
2022/11/20 03:32:35;;;;;;;;;;;;;;;-4.26;72.02;100367.52;116622;1302;22432;-70
2022/11/20 03:35:22;;;;;;;;;;;;;;;-4.29;72.16;100369.98;116618;1304;22460;-70
2022/11/20 03:38:12;;;;;;;;;;;;;;;-4.33;72.16;100369.24;116610;1275;22826;-70
2022/11/20 03:41:05;;;;;;;;;;;;;;;-4.36;72.26;100365.58;116588;1296;22451;-70
2022/11/20 03:43:52;;;;;;;;;;;;;;;-4.39;72.42;100366.54;116623;1302;24260;-70
2022/11/20 03:46:40;;;;;;;;;;;;;;;-4.44;72.53;100369.67;116557;1274;22442;-69
2022/11/20 03:49:27;;;;;;;;;;;;;;;-4.47;72.65;100364.66;116585;1301;25903;-69
2022/11/20 03:52:17;;;;;;;;;;;;;;;-4.51;72.80;100363.89;116589;1285;24229;-70
2022/11/20 03:55:08;;;;;;;;;;;;;;;-4.55;72.87;100364.83;116592;1295;22461;-69
2022/11/20 03:57:56;;;;;;;;;;;;;;;-4.59;73.16;100360.80;116573;1285;22564;-70
2022/11/20 04:00:44;;;;;;;;;;;;;;;-4.65;73.21;100359.15;116586;1299;22464;-69
2022/11/20 04:03:34;;;;;;;;;;;;;;;-4.71;73.42;100362.25;116571;1304;22437;-69
2022/11/20 04:06:30;;;;;;;;;;;;;;;-4.76;73.35;100366.38;116590;1303;22597;-69
2022/11/20 04:09:20;;;;;;;;;;;;;;;-4.81;73.58;100372.56;116618;1302;22477;-69
2022/11/20 04:12:08;;;;;;;;;;;;;;;-4.84;73.78;100370.59;116636;1275;22946;-69
2022/11/20 04:14:57;;;;;;;;;;;;;;;-4.88;73.97;100366.08;116629;1300;22441;-69
2022/11/20 04:17:49;;;;;;;;;;;;;;;-4.92;73.99;100362.59;116601;1303;22480;-70
2022/11/20 04:20:39;;;;;;;;;;;;;;;-4.97;74.34;100365.55;116608;1281;22485;-70
2022/11/20 04:23:27;;;;;;;;;;;;;;;-5.02;74.34;100372.39;116580;1289;22439;-70
2022/11/20 04:26:16;;;;;;;;;;;;;;;-5.07;74.61;100362.92;116423;1289;25182;-70
2022/11/20 04:29:07;;;;;;;;;;;;;;;-5.10;74.61;100361.80;116571;1282;26570;-69
2022/11/20 04:31:55;;;;;;;;;;;;;;;-5.10;74.66;100361.63;116573;1296;22435;-70
2022/11/20 04:34:42;;;;;;;;;;;;;;;-5.08;74.73;100361.18;116592;1282;22442;-70
2022/11/20 04:37:29;;;;;;;;;;;;;;;-5.03;75.10;100362.84;116574;1291;22437;-69
2022/11/20 04:40:22;;;;;;;;;;;;;;;-4.99;75.09;100363.77;116576;1281;22433;-69
2022/11/20 04:43:09;;;;;;;;;;;;;;;-4.97;75.22;100364.33;116578;1304;22435;-69
2022/11/20 04:45:59;;;;;;;;;;;;;;;-4.99;75.29;100366.17;116569;1303;22878;-68
2022/11/20 04:48:48;;;;;;;;;;;;;;;-5.06;75.11;100363.42;116559;1284;22458;-69
2022/11/20 04:51:36;;;;;;;;;;;;;;;-5.13;75.12;100360.71;116540;1296;24257;-69
2022/11/20 04:54:28;;;;;;;;;;;;;;;-5.21;75.32;100363.40;116583;1278;22445;-69
2022/11/20 04:57:17;;;;;;;;;;;;;;;-5.27;75.38;100362.23;116423;1285;22464;-69
2022/11/20 05:00:05;;;;;;;;;;;;;;;-5.34;75.51;100361.71;116585;1296;22473;-69
2022/11/20 05:02:52;;;;;;;;;;;;;;;-5.41;75.66;100354.05;116624;1283;22463;-67
2022/11/20 05:05:43;;;;;;;;;;;;;;;-5.49;75.92;100352.14;116378;1299;342060;-68
2022/11/20 05:08:35;;;;;;;;;;;;;;;-5.55;75.95;100349.27;116626;1303;22519;-68
2022/11/20 05:11:32;;;;;;;;;;;;;;;-5.63;76.09;100347.02;116301;1302;22434;-69
2022/11/20 05:14:23;;;;;;;;;;;;;;;-5.71;76.53;100346.47;116577;1285;22444;-69
2022/11/20 05:17:14;;;;;;;;;;;;;;;-5.77;76.50;100344.77;116587;1302;22493;-69
2022/11/20 05:20:01;;;;;;;;;;;;;;;-5.82;76.82;100339.54;116563;1304;24502;-69
2022/11/20 05:22:48;;;;;;;;;;;;;;;-5.85;77.17;100337.58;116556;1281;22453;-69
2022/11/20 05:25:35;;;;;;;;;;;;;;;-5.86;77.32;100335.66;116589;1304;22433;-68
2022/11/20 05:28:24;;;;;;;;;;;;;;;-5.84;77.14;100333.36;116549;1282;22449;-68
2022/11/20 05:31:16;;;;;;;;;;;;;;;-5.81;77.31;100330.55;116615;1303;22596;-68
2022/11/20 05:34:07;;;;;;;;;;;;;;;-5.75;77.58;100329.54;116556;1287;22447;-70
2022/11/20 05:36:58;;;;;;;;;;;;;;;-5.70;77.45;100334.07;116591;1282;22435;-69
2022/11/20 05:39:47;;;;;;;;;;;;;;;-5.67;77.48;100332.62;116590;1302;24527;-69
2022/11/20 05:42:37;;;;;;;;;;;;;;;-5.64;77.35;100334.73;116646;1304;22443;-69
2022/11/20 05:45:24;;;;;;;;;;;;;;;-5.65;77.30;100330.80;116639;1300;25881;-69
2022/11/20 05:48:12;;;;;;;;;;;;;;;-5.68;77.37;100323.59;116611;1282;22457;-69
2022/11/20 05:51:04;;;;;;;;;;;;;;;-5.72;77.40;100320.25;116597;1276;22436;-68
2022/11/20 05:53:54;;;;;;;;;;;;;;;-5.77;77.28;100316.23;116608;1301;22437;-69
2022/11/20 05:56:41;;;;;;;;;;;;;;;-5.82;77.47;100316.59;116578;1282;25265;-69
2022/11/20 05:59:31;;;;;;;;;;;;;;;-5.89;77.78;100307.90;116600;1303;22433;-69
2022/11/20 06:02:20;;;;;;;;;;;;;;;-5.95;77.68;100309.47;116534;1296;22446;-69
2022/11/20 06:05:11;;;;;;;;;;;;;;;-6.00;77.68;100312.25;116551;1284;22464;-70
2022/11/20 06:08:00;;;;;;;;;;;;;;;-6.03;77.90;100309.25;116542;1300;26866;-69
2022/11/20 06:10:49;;;;;;;;;;;;;;;-6.07;77.85;100309.66;116601;1284;22437;-69
2022/11/20 06:13:42;;;;;;;;;;;;;;;-6.10;78.06;100307.21;116578;1275;22438;-70
2022/11/20 06:16:30;;;;;;;;;;;;;;;-6.11;77.93;100311.06;116559;1284;24400;-69
2022/11/20 06:19:21;;;;;;;;;;;;;;;-6.10;77.86;100314.51;116564;1304;22450;-70
2022/11/20 06:22:13;;;;;;;;;;;;;;;-6.04;78.04;100314.14;116619;1304;22498;-70
2022/11/20 06:25:02;;;;;;;;;;;;;;;-5.96;77.93;100311.83;116594;1281;24400;-69
2022/11/20 06:27:49;;;;;;;;;;;;;;;-5.86;78.22;100313.43;116561;1302;22435;-70
2022/11/20 06:30:45;;;;;;;;;;;;;;;-5.75;78.21;100314.23;116558;1281;25451;-68
2022/11/20 06:33:37;;;;;;;;;;;;;;;-5.72;78.01;100306.84;116541;1282;24219;-69
2022/11/20 06:36:26;;;;;;;;;;;;;;;-5.66;77.98;100306.48;116548;1295;22436;-70
2022/11/20 06:39:14;;;;;;;;;;;;;;;-5.66;77.82;100309.05;116586;1304;22451;-70
2022/11/20 06:42:06;;;;;;;;;;;;;;;-5.67;77.76;100310.34;116573;1285;22463;-68
2022/11/20 06:44:54;;;;;;;;;;;;;;;-5.67;77.78;100310.17;116588;1288;22493;-70
2022/11/20 06:47:43;;;;;;;;;;;;;;;-5.68;77.81;100306.93;116594;1281;22412;-68
2022/11/20 06:50:36;;;;;;;;;;;;;;;-5.71;77.84;100302.28;116541;1282;24197;-69
2022/11/20 06:53:23;;;;;;;;;;;;;;;-5.74;77.75;100298.98;116589;1304;22466;-69
2022/11/20 06:56:12;;;;;;;;;;;;;;;-5.67;77.93;100300.86;116654;1280;22440;-70
2022/11/20 06:59:10;;;;;;;;;;;;;;;-5.52;78.01;100300.73;116624;1291;22447;-69
2022/11/20 07:01:59;;;;;;;;;;;;;;;-5.36;77.98;100302.65;116600;1304;23007;-70
2022/11/20 07:04:48;;;;;;;;;;;;;;;-4.84;78.51;100298.63;116618;1285;22440;-69
2022/11/20 07:07:35;;;;;;;;;;;;;;;-3.83;79.08;100297.17;116581;1274;22450;-69
2022/11/20 07:10:29;;;;;;;;;;;;;;;-2.85;78.31;100284.65;116580;1282;22444;-70
2022/11/20 07:13:18;;;;;;;;;;;;;;;-1.91;76.16;100283.66;116566;1274;24402;-70
2022/11/20 07:16:11;;;;;;;;;;;;;;;-1.21;73.95;100286.04;116590;1292;25356;-70
2022/11/20 07:18:59;;;;;;;;;;;;;;;-0.60;72.34;100286.83;116575;1303;25367;-70
2022/11/20 07:21:48;;;;;;;;;;;;;;;-0.26;70.08;100288.55;116576;1301;22833;-71
2022/11/20 07:24:36;;;;;;;;;;;;;;;0.14;68.87;100288.02;116614;1296;22444;-70
2022/11/20 07:27:23;;;;;;;;;;;;;;;0.28;68.76;100286.85;116564;1292;22474;-69
2022/11/20 07:30:19;;;;;;;;;;;;;;;0.35;68.66;100284.13;116400;1303;25467;-70
2022/11/20 07:33:07;;;;;;;;;;;;;;;0.37;67.36;100284.30;116418;1300;24263;-70
2022/11/20 07:35:56;;;;;;;;;;;;;;;0.32;66.26;100284.45;116467;1303;22469;-70
2022/11/20 07:38:43;;;;;;;;;;;;;;;0.48;65.54;100278.48;116335;1302;22455;-70
2022/11/20 07:41:31;;;;;;;;;;;;;;;0.54;65.07;100275.39;116275;1294;22431;-69
2022/11/20 07:44:24;;;;;;;;;;;;;;;0.35;64.58;100277.77;116360;1303;22447;-69
2022/11/20 07:47:15;;;;;;;;;;;;;;;0.18;64.18;100273.61;116380;1303;22586;-71
2022/11/20 07:50:02;;;;;;;;;;;;;;;0.04;63.24;100275.47;116386;1284;22543;-68
2022/11/20 07:52:49;;;;;;;;;;;;;;;-0.18;63.16;100275.89;116391;1303;22446;-70
2022/11/20 07:55:36;;;;;;;;;;;;;;;-0.28;63.15;100270.38;116367;1286;22449;-68
2022/11/20 07:58:26;;;;;;;;;;;;;;;-0.27;63.67;100271.23;116319;1285;22443;-70
2022/11/20 08:01:15;;;;;;;;;;;;;;;-0.45;63.83;100275.42;116348;1303;22447;-70
2022/11/20 08:04:06;;;;;;;;;;;;;;;-0.71;64.40;100275.45;116338;1290;22449;-69
2022/11/20 08:06:56;;;;;;;;;;;;;;;-0.97;64.31;100275.80;116329;1303;22436;-70
2022/11/20 08:09:47;;;;;;;;;;;;;;;-1.25;64.84;100280.36;116319;1294;22445;-69
2022/11/20 08:15:51;;;;;;;;;;;;;;;-1.65;66.05;100277.44;116350;1277;24319;-69
2022/11/20 08:18:38;;;;;;;;;;;;;;;-1.79;66.45;100270.98;116387;1287;24477;-69
2022/11/20 08:21:27;;;;;;;;;;;;;;;-1.79;66.95;100274.05;116379;1284;22447;-70
2022/11/20 08:24:16;;;;;;;;;;;;;;;-1.64;67.03;100275.40;116358;1303;22464;-70
2022/11/20 08:27:07;;;;;;;;;;;;;;;-1.43;67.17;100274.05;116335;1303;25217;-70
2022/11/20 08:29:55;;;;;;;;;;;;;;;-1.24;66.61;100275.93;116354;1295;22443;-70
2022/11/20 08:32:41;;;;;;;;;;;;;;;-1.19;66.27;100273.91;116411;1294;23785;-68
2022/11/20 08:35:32;;;;;;;;;;;;;;;-1.13;66.38;100263.01;116406;1296;25354;-68
2022/11/20 08:38:26;;;;;;;;;;;;;;;-1.07;66.87;100259.96;116411;1303;22563;-68
2022/11/20 08:41:25;;;;;;;;;;;;;;;-0.93;66.84;100255.61;116340;1282;22632;-70
2022/11/20 08:44:16;;;;;;;;;;;;;;;-0.76;66.58;100250.77;116340;1285;22449;-70
2022/11/20 08:47:04;;;;;;;;;;;;;;;-0.58;65.94;100245.20;116324;1303;22448;-69
2022/11/20 08:49:52;;;;;;;;;;;;;;;-0.36;65.81;100243.44;116351;1285;22557;-70
2022/11/20 08:52:43;;;;;;;;;;;;;;;-0.20;65.49;100233.20;116316;1291;22453;-66
2022/11/20 08:55:30;;;;;;;;;;;;;;;-0.09;64.61;100230.49;116341;1278;24270;-68
2022/11/20 08:58:20;;;;;;;;;;;;;;;0.19;65.26;100221.29;116310;1284;24260;-68
2022/11/20 09:01:07;;;;;;;;;;;;;;;0.70;65.19;100215.66;116327;1303;22489;-71
2022/11/20 09:03:56;;;;;;;;;;;;;;;1.25;63.97;100215.92;116339;1303;22445;-70
2022/11/20 09:06:43;;;;;;;;;;;;;;;1.89;63.24;100217.22;116391;1291;22538;-71
2022/11/20 09:09:33;;;;;;;;;;;;;;;2.48;61.42;100211.35;116308;1303;24274;-69
2022/11/20 09:12:20;;;;;;;;;;;;;;;2.88;60.29;100208.92;116381;1303;22435;-69
2022/11/20 09:15:12;;;;;;;;;;;;;;;3.40;60.22;100208.77;116326;1303;22494;-69
2022/11/20 09:17:59;;;;;;;;;;;;;;;3.76;59.07;100207.80;116407;1297;22453;-70
2022/11/20 09:20:49;;;;;;;;;;;;;;;4.24;58.34;100202.98;116343;1285;22445;-71
2022/11/20 09:23:38;;;;;;;;;;;;;;;4.77;57.04;100197.31;116353;1280;25340;-67
2022/11/20 09:26:28;;;;;;;;;;;;;;;5.18;57.26;100199.68;116326;1276;24380;-68
2022/11/20 09:29:19;;;;;;;;;;;;;;;5.58;55.42;100198.03;116337;1280;22450;-68
2022/11/20 09:32:13;;;;;;;;;;;;;;;5.76;54.74;100197.13;116328;1303;22428;-69
2022/11/20 09:35:01;;;;;;;;;;;;;;;5.91;52.31;100198.04;116291;1303;22491;-69
2022/11/20 09:37:48;;;;;;;;;;;;;;;6.04;53.03;100186.89;116325;1284;22467;-69
2022/11/20 09:40:38;;;;;;;;;;;;;;;6.33;52.64;100183.94;116282;1291;22469;-72
2022/11/20 09:43:32;;;;;;;;;;;;;;;6.65;52.77;100177.80;116347;1294;22437;-72
2022/11/20 09:46:24;;;;;;;;;;;;;;;6.95;52.67;100174.45;116392;1277;22486;-68
2022/11/20 09:49:24;;;;;;;;;;;;;;;7.21;51.12;100178.59;116403;1297;22430;-68
2022/11/20 09:52:16;;;;;;;;;;;;;;;7.41;50.30;100174.56;116388;1285;22434;-69
2022/11/20 09:55:04;;;;;;;;;;;;;;;7.55;49.53;100175.40;116420;1297;22467;-71
2022/11/20 09:57:52;;;;;;;;;;;;;;;7.70;50.33;100172.52;116409;1302;24336;-68
2022/11/20 10:00:42;;;;;;;;;;;;;;;7.97;49.65;100171.88;116403;1303;25365;-68
2022/11/20 10:03:37;;;;;;;;;;;;;;;8.14;48.65;100168.95;116348;1300;22518;-71
2022/11/20 10:06:34;;;;;;;;;;;;;;;7.95;48.12;100166.39;116397;1303;22436;-71
2022/11/20 10:09:26;;;;;;;;;;;;;;;7.62;47.75;100164.95;116362;1287;22547;-71
2022/11/20 10:12:16;;;;;;;;;;;;;;;7.10;47.36;100165.02;116235;1268;24390;-68
2022/11/20 10:15:18;;;;;;;;;;;;;;;6.48;47.81;100169.90;116346;1300;22450;-72
2022/11/20 10:18:12;;;;;;;;;;;;;;;5.66;47.14;100171.23;116342;1285;22473;-68
2022/11/20 10:21:04;;;;;;;;;;;;;;;4.87;48.08;100170.52;116361;1285;22452;-69
2022/11/20 10:24:24;;;;;;;;;;;;;;;4.24;49.31;100167.59;116250;1285;22435;-71
2022/11/20 10:27:23;;;;;;;;;;;;;;;3.76;50.99;100168.47;116294;1304;22460;-71
2022/11/20 10:30:13;;;;;;;;;;;;;;;3.42;51.39;100167.69;116202;1304;22474;-70
2022/11/20 10:33:05;;;;;;;;;;;;;;;3.00;51.62;100166.43;116381;1297;25381;-70
2022/11/20 10:36:01;;;;;;;;;;;;;;;2.61;52.86;100165.77;116423;1296;22509;-69
2022/11/20 10:38:51;;;;;;;;;;;;;;;2.27;53.39;100165.89;116391;1291;22462;-70
2022/11/20 10:41:40;;;;;;;;;;;;;;;1.99;53.97;100165.22;116345;1287;22454;-69
2022/11/20 10:47:39;;;;;;;;;;;;;;;1.43;54.85;100165.68;116322;1303;22445;-71
2022/11/20 10:50:30;;;;;;;;;;;;;;;1.22;55.94;100161.13;116326;1303;22539;-68
2022/11/20 10:53:21;;;;;;;;;;;;;;;1.12;56.62;100166.14;116334;1303;25052;-68
2022/11/20 10:56:15;;;;;;;;;;;;;;;1.07;57.23;100168.73;116320;1294;22626;-69
2022/11/20 10:59:17;;;;;;;;;;;;;;;0.99;57.35;100167.37;116354;1288;24483;-72
2022/11/20 11:02:20;;;;;;;;;;;;;;;0.91;57.65;100166.88;116278;1299;22449;-69
2022/11/20 11:05:17;;;;;;;;;;;;;;;0.82;58.23;100164.84;116303;1277;22455;-70
2022/11/20 11:08:05;;;;;;;;;;;;;;;0.79;58.55;100163.82;116315;1303;22453;-71
2022/11/20 11:10:55;;;;;;;;;;;;;;;0.74;58.87;100157.80;116273;1300;22440;-71
2022/11/20 11:13:43;;;;;;;;;;;;;;;0.66;58.89;100149.58;116386;1284;25355;-70
2022/11/20 11:16:35;;;;;;;;;;;;;;;0.57;59.14;100142.55;116391;1296;24237;-70
2022/11/20 11:19:31;;;;;;;;;;;;;;;0.50;59.36;100142.21;116349;1301;22443;-71
2022/11/20 11:22:22;;;;;;;;;;;;;;;0.46;59.91;100147.54;116342;1303;22516;-71
2022/11/20 11:25:10;;;;;;;;;;;;;;;0.43;59.68;100146.67;116374;1298;22476;-68
2022/11/20 11:28:00;;;;;;;;;;;;;;;0.37;60.04;100144.11;116388;1284;22448;-68
2022/11/20 11:30:49;;;;;;;;;;;;;;;0.33;60.35;100141.70;116371;1297;22446;-70
2022/11/20 11:33:38;;;;;;;;;;;;;;;0.26;60.42;100138.11;116408;1303;25351;-70
2022/11/20 11:36:30;;;;;;;;;;;;;;;0.24;60.84;100132.43;116317;1285;24419;-69
2022/11/20 11:39:19;;;;;;;;;;;;;;;0.21;60.89;100128.67;116380;1295;22450;-69
2022/11/20 11:42:10;;;;;;;;;;;;;;;0.19;61.12;100129.86;116359;1283;22450;-69
2022/11/20 11:45:07;;;;;;;;;;;;;;;0.17;61.38;100125.75;116334;1290;24709;-68
2022/11/20 11:47:55;;;;;;;;;;;;;;;0.14;61.46;100123.52;116245;1298;22585;-70
2022/11/20 11:50:51;;;;;;;;;;;;;;;0.14;61.50;100130.20;116321;1278;24264;-68
2022/11/20 11:53:39;;;;;;;;;;;;;;;0.13;61.63;100127.63;116377;1292;22445;-68
2022/11/20 11:56:30;;;;;;;;;;;;;;;0.09;61.64;100125.40;116407;1297;22448;-70
2022/11/20 11:59:22;;;;;;;;;;;;;;;0.06;61.61;100125.06;116346;1299;22484;-70
2022/11/20 12:02:17;;;;;;;;;;;;;;;0.01;61.81;100128.66;116365;1295;22445;-68
2022/11/20 12:05:13;;;;;;;;;;;;;;;-0.04;61.99;100120.60;116358;1287;22440;-66
2022/11/20 12:08:04;;;;;;;;;;;;;;;-0.05;62.05;100109.27;116364;1289;22474;-69
2022/11/20 12:10:53;;;;;;;;;;;;;;;-0.08;62.24;100110.30;116403;1303;22435;-71
2022/11/20 12:13:54;;;;;;;;;;;;;;;-0.09;62.33;100109.63;116374;1300;22443;-71
2022/11/20 12:16:44;;;;;;;;;;;;;;;-0.12;62.26;100101.55;116376;1303;24752;-71
2022/11/20 12:19:35;;;;;;;;;;;;;;;-0.16;62.42;100099.66;116408;1295;24306;-68
2022/11/20 12:22:31;;;;;;;;;;;;;;;-0.19;62.69;100104.11;116337;1285;23643;-68
2022/11/20 12:25:22;;;;;;;;;;;;;;;-0.23;62.77;100093.66;116343;1303;25196;-69
2022/11/20 12:28:23;;;;;;;;;;;;;;;-0.27;62.90;100093.13;116344;1284;25232;-71
2022/11/20 12:31:21;;;;;;;;;;;;;;;-0.30;62.99;100091.58;116307;1303;22436;-70
2022/11/20 12:34:21;;;;;;;;;;;;;;;-0.32;62.91;100088.33;116331;1303;22457;-70
2022/11/20 12:37:15;;;;;;;;;;;;;;;-0.34;63.08;100083.87;116344;1288;22449;-71
2022/11/20 12:40:05;;;;;;;;;;;;;;;-0.37;63.32;100080.95;116379;1296;22442;-68
2022/11/20 12:46:27;;;;;;;;;;;;;;;-0.42;63.60;100074.94;116366;1303;22443;-70
2022/11/20 12:49:29;;;;;;;;;;;;;;;-0.44;63.85;100073.05;116344;1285;24379;-68
2022/11/20 12:52:36;;;;;;;;;;;;;;;-0.45;63.74;100069.62;116394;1303;22433;-67
2022/11/20 12:55:32;;;;;;;;;;;;;;;-0.48;63.89;100070.98;116356;1281;22466;-69
2022/11/20 12:58:25;;;;;;;;;;;;;;;-0.49;63.87;100069.77;116338;1300;22448;-70
2022/11/20 13:04:40;;;;;;;;;;;;;;;-0.49;64.19;100060.36;116362;1288;25469;-70
2022/11/20 13:07:27;;;;;;;;;;;;;;;-0.49;64.31;100050.41;115970;1284;504545;-70
2022/11/20 13:10:19;;;;;;;;;;;;;;;-0.51;64.59;100046.13;116378;1303;22513;-69
2022/11/20 13:13:12;;;;;;;;;;;;;;;-0.52;64.33;100038.77;116297;1283;22444;-68
2022/11/20 13:16:04;;;;;;;;;;;;;;;-0.53;64.24;100038.09;116369;1285;24481;-70
2022/11/20 13:18:51;;;;;;;;;;;;;;;-0.54;64.39;100040.83;116398;1303;22456;-71
2022/11/20 13:21:48;;;;;;;;;;;;;;;-0.55;64.58;100037.39;116373;1303;22665;-70
2022/11/20 13:24:42;;;;;;;;;;;;;;;-0.54;64.64;100034.66;116347;1303;22448;-69
2022/11/20 13:27:30;;;;;;;;;;;;;;;-0.54;64.69;100032.79;116363;1303;22483;-71
2022/11/20 13:30:24;;;;;;;;;;;;;;;-0.54;65.17;100028.33;116405;1292;22437;-71
2022/11/20 13:33:23;;;;;;;;;;;;;;;-0.53;64.87;100029.52;116344;1285;22486;-71
2022/11/20 13:36:25;;;;;;;;;;;;;;;-0.52;64.66;100032.09;116380;1295;24268;-68
2022/11/20 13:39:24;;;;;;;;;;;;;;;-0.52;65.05;100031.57;116333;1291;22462;-71
2022/11/20 13:42:27;;;;;;;;;;;;;;;-0.51;65.04;100027.11;116394;1285;22437;-70
2022/11/20 13:45:24;;;;;;;;;;;;;;;-0.52;65.08;100028.32;116290;1294;22434;-68
2022/11/20 13:48:27;;;;;;;;;;;;;;;-0.55;65.06;100030.54;116373;1303;22463;-68
2022/11/20 13:51:22;;;;;;;;;;;;;;;-0.58;65.16;100022.15;116319;1303;22460;-70
2022/11/20 13:54:34;;;;;;;;;;;;;;;-0.60;65.20;100017.17;116323;1303;22435;-71
2022/11/20 13:57:35;;;;;;;;;;;;;;;-0.65;65.16;100014.08;116261;1293;24245;-69
2022/11/20 14:00:25;;;;;;;;;;;;;;;-0.66;65.37;100012.02;116365;1303;22488;-70
2022/11/20 14:03:17;;;;;;;;;;;;;;;-0.69;65.36;100016.30;116319;1277;22456;-70
2022/11/20 14:06:15;;;;;;;;;;;;;;;-0.70;65.58;100003.10;116373;1303;22431;-69
2022/11/20 14:09:05;;;;;;;;;;;;;;;-0.71;65.75;100004.64;116445;1294;22565;-69
2022/11/20 14:11:56;;;;;;;;;;;;;;;-0.71;65.79;100000.70;116262;1305;22486;-68
2022/11/20 14:14:50;;;;;;;;;;;;;;;-0.74;65.69;99991.45;116237;1298;24270;-70
2022/11/20 14:17:38;;;;;;;;;;;;;;;-0.75;66.10;99990.08;116244;1270;25419;-69
2022/11/20 14:20:31;;;;;;;;;;;;;;;-0.76;66.00;99994.37;116246;1297;22469;-70
2022/11/20 14:23:29;;;;;;;;;;;;;;;-0.77;66.16;99997.63;116278;1278;22452;-70
2022/11/20 14:26:18;;;;;;;;;;;;;;;-0.78;66.34;99997.62;116227;1305;22452;-69
2022/11/20 14:29:12;;;;;;;;;;;;;;;-0.79;66.19;99995.90;116227;1305;25379;-68
2022/11/20 14:32:03;;;;;;;;;;;;;;;-0.80;66.39;99989.89;116205;1305;22455;-69
2022/11/20 14:34:53;;;;;;;;;;;;;;;-0.81;66.57;99991.10;116202;1286;22451;-69
2022/11/20 14:37:44;;;;;;;;;;;;;;;-0.82;66.62;99993.67;116254;1297;22467;-71
2022/11/20 14:40:39;;;;;;;;;;;;;;;-0.85;66.80;99994.86;116234;1305;22450;-71
2022/11/20 14:43:29;;;;;;;;;;;;;;;-0.88;66.88;99998.10;116194;1305;22443;-70
2022/11/20 14:46:22;;;;;;;;;;;;;;;-0.91;67.17;99997.23;116229;1276;22438;-70
2022/11/20 14:49:10;;;;;;;;;;;;;;;-0.93;67.23;99996.22;116237;1283;22568;-70